createdAt,value
2022-11-29T00:00:53.435Z,24.98
2022-11-29T00:02:07.046Z,29.60
2022-11-29T00:03:08.661Z,20.40
2022-11-29T00:04:11.858Z,30.35
2022-11-29T00:05:13.463Z,36.03
2022-11-29T00:06:18.367Z,29.33
2022-11-29T00:07:19.984Z,28.38
2022-11-29T00:08:24.432Z,29.58
2022-11-29T00:09:27.643Z,24.02
2022-11-29T00:10:30.187Z,25.88
2022-11-29T00:11:52.265Z,27.90
2022-11-29T00:12:54.813Z,25.95
2022-11-29T00:13:56.317Z,30.65
2022-11-29T00:14:58.811Z,26.88
2022-11-29T00:16:04.451Z,33.83
2022-11-29T00:17:06.951Z,26.70
2022-11-29T00:18:08.765Z,31.20
2022-11-29T00:19:13.168Z,30.80
2022-11-29T00:20:15.642Z,25.92
2022-11-29T00:21:17.164Z,27.17
2022-11-29T00:22:19.739Z,28.63
2022-11-29T00:23:21.503Z,33.63
2022-11-29T00:24:24.254Z,30.13
2022-11-29T00:25:27.409Z,36.17
2022-11-29T00:26:29.912Z,34.83
2022-11-29T00:27:31.663Z,24.80
2022-11-29T00:28:34.936Z,34.33
2022-11-29T00:29:36.433Z,41.30
2022-11-29T00:30:38.991Z,37.97
2022-11-29T00:31:41.343Z,26.25
2022-11-29T00:32:43.910Z,25.58
2022-11-29T00:33:45.590Z,36.90
2022-11-29T00:34:48.367Z,28.42
2022-11-29T00:35:50.299Z,29.65
2022-11-29T00:36:53.219Z,23.70
2022-11-29T00:37:54.942Z,27.70
2022-11-29T00:38:57.815Z,31.00
2022-11-29T00:40:00.278Z,26.75
2022-11-29T00:41:03.390Z,25.85
2022-11-29T00:42:06.006Z,26.23
2022-11-29T00:43:07.550Z,34.15
2022-11-29T00:44:13.933Z,24.88
2022-11-29T00:45:19.373Z,24.80
2022-11-29T00:46:20.942Z,24.50
2022-11-29T00:47:23.591Z,35.40
2022-11-29T00:48:25.455Z,22.67
2022-11-29T00:49:27.905Z,28.08
2022-11-29T00:50:29.407Z,31.85
2022-11-29T00:51:31.943Z,28.67
2022-11-29T00:52:34.466Z,29.80
2022-11-29T00:53:36.554Z,31.92
2022-11-29T00:54:39.035Z,31.00
2022-11-29T00:55:40.660Z,40.90
2022-11-29T00:56:44.503Z,30.80
2022-11-29T00:57:46.034Z,26.17
2022-11-29T00:58:49.323Z,29.67
2022-11-29T00:59:51.782Z,32.10
2022-11-29T01:00:54.420Z,24.27
2022-11-29T01:01:57.204Z,30.13
2022-11-29T01:02:58.767Z,33.35
2022-11-29T01:04:01.385Z,25.35
2022-11-29T01:05:02.978Z,25.75
2022-11-29T01:06:07.533Z,22.77
2022-11-29T01:07:10.050Z,25.02
2022-11-29T01:08:12.277Z,29.08
2022-11-29T01:09:14.772Z,27.65
2022-11-29T01:10:17.143Z,33.92
2022-11-29T01:11:22.347Z,29.65
2022-11-29T01:12:25.214Z,40.70
2022-11-29T01:13:27.688Z,35.15
2022-11-29T01:14:30.260Z,31.60
2022-11-29T01:15:31.899Z,31.83
2022-11-29T01:16:34.820Z,38.50
2022-11-29T01:17:38.760Z,29.75
2022-11-29T01:18:41.707Z,37.88
2022-11-29T01:19:49.341Z,33.65
2022-11-29T01:20:58.019Z,31.10
2022-11-29T01:22:00.518Z,34.70
2022-11-29T01:23:02.047Z,35.92
2022-11-29T01:24:05.074Z,33.08
2022-11-29T01:25:07.947Z,32.30
2022-11-29T01:26:12.799Z,33.25
2022-11-29T01:27:14.410Z,41.20
2022-11-29T01:28:18.252Z,30.63
2022-11-29T01:29:19.758Z,32.67
2022-11-29T01:30:22.294Z,31.83
2022-11-29T01:31:26.069Z,32.45
2022-11-29T01:32:28.600Z,34.95
2022-11-29T01:33:30.123Z,40.08
2022-11-29T01:34:32.626Z,39.10
2022-11-29T01:35:34.114Z,37.05
2022-11-29T01:36:36.577Z,37.42
2022-11-29T01:37:38.079Z,48.88
2022-11-29T01:38:42.231Z,35.53
2022-11-29T01:39:43.759Z,40.05
2022-11-29T01:40:46.802Z,43.40
2022-11-29T01:41:49.280Z,33.22
2022-11-29T01:42:50.764Z,32.47
2022-11-29T01:44:01.112Z,45.17
2022-11-29T01:45:19.463Z,41.90
2022-11-29T01:46:22.277Z,54.50
2022-11-29T01:47:23.855Z,45.35
2022-11-29T01:48:30.746Z,53.47
2022-11-29T01:49:35.795Z,45.28
2022-11-29T01:50:38.935Z,40.13
2022-11-29T01:51:44.993Z,43.72
2022-11-29T01:52:48.640Z,42.15
2022-11-29T01:53:50.257Z,48.10
2022-11-29T01:54:57.642Z,42.95
2022-11-29T01:56:03.976Z,41.42
2022-11-29T01:57:08.346Z,41.85
2022-11-29T01:58:09.939Z,55.90
2022-11-29T01:59:16.625Z,54.22
2022-11-29T02:00:19.662Z,47.65
2022-11-29T02:01:22.259Z,39.83
2022-11-29T02:02:35.404Z,40.60
2022-11-29T02:03:38.128Z,67.15
2022-11-29T02:04:43.253Z,55.75
2022-11-29T02:05:49.806Z,48.85
2022-11-29T02:06:51.347Z,46.08
2022-11-29T02:07:57.473Z,47.90
2022-11-29T02:08:59.127Z,44.97
2022-11-29T02:10:02.901Z,47.20
2022-11-29T02:11:31.249Z,45.75
2022-11-29T02:12:44.425Z,47.85
2022-11-29T02:13:57.631Z,44.28
2022-11-29T02:15:15.800Z,48.72
2022-11-29T02:16:24.525Z,53.42
2022-11-29T02:17:33.914Z,40.85
2022-11-29T02:18:51.745Z,45.65
2022-11-29T02:20:35.886Z,45.40
2022-11-29T02:21:47.056Z,46.88
2022-11-29T02:22:56.508Z,54.40
2022-11-29T02:24:24.222Z,49.05
2022-11-29T02:25:44.914Z,43.40
2022-11-29T02:27:26.274Z,63.90
2022-11-29T02:28:49.788Z,43.05
2022-11-29T02:30:14.001Z,52.95
2022-11-29T02:31:45.855Z,54.70
2022-11-29T02:33:13.740Z,55.90
2022-11-29T02:34:50.854Z,60.42
2022-11-29T02:36:11.256Z,64.18
2022-11-29T02:37:42.449Z,49.67
2022-11-29T02:39:15.244Z,69.40
2022-11-29T02:40:38.347Z,74.43
2022-11-29T02:41:55.339Z,69.05
2022-11-29T02:43:19.288Z,62.88
2022-11-29T02:44:45.964Z,60.78
2022-11-29T02:46:03.213Z,69.75
2022-11-29T02:47:17.494Z,67.95
2022-11-29T02:48:35.266Z,65.45
2022-11-29T02:49:57.999Z,64.07
2022-11-29T02:51:06.943Z,54.40
2022-11-29T02:52:18.214Z,59.03
2022-11-29T02:53:27.928Z,58.15
2022-11-29T02:54:37.494Z,61.97
2022-11-29T02:55:47.288Z,67.72
2022-11-29T02:59:52.448Z,63.78
2022-11-29T03:01:02.833Z,67.97
2022-11-29T03:02:15.239Z,69.55
2022-11-29T03:03:23.868Z,68.85
2022-11-29T03:04:32.601Z,75.38
2022-11-29T03:05:41.771Z,79.45
2022-11-29T03:06:52.281Z,77.15
2022-11-29T03:08:00.664Z,64.88
2022-11-29T03:09:12.527Z,78.05
2022-11-29T03:10:28.511Z,65.53
2022-11-29T03:11:38.975Z,75.63
2022-11-29T03:12:43.638Z,83.88
2022-11-29T03:13:56.792Z,83.30
2022-11-29T03:15:11.935Z,69.38
2022-11-29T03:16:24.374Z,65.55
2022-11-29T03:17:35.390Z,84.63
2022-11-29T03:18:50.771Z,79.53
2022-11-29T03:20:05.920Z,71.55
2022-11-29T03:21:23.754Z,68.13
2022-11-29T03:22:38.145Z,80.05
2022-11-29T03:23:47.391Z,76.97
2022-11-29T03:24:56.876Z,73.18
2022-11-29T03:26:07.343Z,66.30
2022-11-29T03:27:13.255Z,70.63
2022-11-29T03:28:20.167Z,78.50
2022-11-29T03:29:28.006Z,76.75
2022-11-29T03:30:32.341Z,91.38
2022-11-29T03:31:38.076Z,79.63
2022-11-29T03:32:47.349Z,72.20
2022-11-29T03:34:14.371Z,82.43
2022-11-29T03:35:22.311Z,71.15
2022-11-29T03:36:34.551Z,79.55
2022-11-29T03:37:45.934Z,75.10
2022-11-29T03:38:48.792Z,103.30
2022-11-29T03:39:52.997Z,93.05
2022-11-29T03:41:04.094Z,85.20
2022-11-29T03:42:11.231Z,91.57
2022-11-29T03:43:20.163Z,111.78
2022-11-29T03:44:27.671Z,78.05
2022-11-29T03:45:35.883Z,85.60
2022-11-29T03:46:44.179Z,88.65
2022-11-29T03:47:56.787Z,89.55
2022-11-29T03:49:03.078Z,99.50
2022-11-29T03:50:11.802Z,86.45
2022-11-29T03:51:17.938Z,84.72
2022-11-29T03:52:32.729Z,90.75
2022-11-29T03:53:41.850Z,88.85
2022-11-29T03:54:54.441Z,76.88
2022-11-29T03:56:00.338Z,91.32
2022-11-29T03:57:03.393Z,101.43
2022-11-29T03:58:21.071Z,83.72
2022-11-29T03:59:45.557Z,94.88
2022-11-29T04:01:07.505Z,96.65
2022-11-29T04:02:26.994Z,93.60
2022-11-29T04:03:46.259Z,106.90
2022-11-29T04:05:37.978Z,95.65
2022-11-29T04:06:49.641Z,99.43
2022-11-29T04:08:04.851Z,81.00
2022-11-29T04:09:32.509Z,93.47
2022-11-29T04:11:01.067Z,104.25
2022-11-29T04:12:30.050Z,95.20
2022-11-29T04:14:05.646Z,94.68
2022-11-29T04:15:33.600Z,89.40
2022-11-29T04:17:00.116Z,99.90
2022-11-29T04:18:33.828Z,99.00
2022-11-29T04:20:11.650Z,98.38
2022-11-29T04:21:31.364Z,109.13
2022-11-29T04:22:57.580Z,112.05
2022-11-29T04:24:22.066Z,116.97
2022-11-29T04:25:41.164Z,103.20
2022-11-29T04:27:16.420Z,87.18
2022-11-29T04:28:57.200Z,101.25
2022-11-29T04:30:06.619Z,127.55
2022-11-29T04:31:18.246Z,105.32
2022-11-29T04:32:41.795Z,87.90
2022-11-29T04:34:09.877Z,106.22
2022-11-29T04:35:29.691Z,110.35
2022-11-29T04:36:49.720Z,86.38
2022-11-29T04:38:14.450Z,124.68
2022-11-29T04:39:57.478Z,96.03
2022-11-29T04:41:19.785Z,88.60
2022-11-29T04:42:41.357Z,103.82
2022-11-29T04:44:02.564Z,105.22
2022-11-29T04:45:26.157Z,102.68
2022-11-29T04:46:53.083Z,104.22
2022-11-29T04:48:09.190Z,114.10
2022-11-29T04:49:26.723Z,96.38
2022-11-29T04:50:46.468Z,112.35
2022-11-29T04:52:02.455Z,99.10
2022-11-29T04:53:25.297Z,110.18
2022-11-29T04:54:34.512Z,102.53
2022-11-29T04:55:46.620Z,101.10
2022-11-29T04:56:53.623Z,92.45
2022-11-29T04:58:00.193Z,88.43
2022-11-29T04:59:08.639Z,96.85
2022-11-29T05:00:12.461Z,116.65
2022-11-29T05:01:24.093Z,120.07
2022-11-29T05:02:34.987Z,114.45
2022-11-29T05:03:41.794Z,93.55
2022-11-29T05:04:52.939Z,108.65
2022-11-29T05:06:02.695Z,117.15
2022-11-29T05:07:12.591Z,113.47
2022-11-29T05:08:27.478Z,101.55
2022-11-29T05:09:44.355Z,100.97
2022-11-29T05:10:56.287Z,95.05
2022-11-29T05:12:09.500Z,106.35
2022-11-29T05:13:18.897Z,95.15
2022-11-29T05:14:32.973Z,115.90
2022-11-29T05:15:49.737Z,101.25
2022-11-29T05:17:01.847Z,91.65
2022-11-29T05:18:15.048Z,99.82
2022-11-29T05:19:34.249Z,99.10
2022-11-29T05:20:46.095Z,115.53
2022-11-29T05:21:59.760Z,97.22
2022-11-29T05:23:18.826Z,88.28
2022-11-29T05:24:35.734Z,95.05
2022-11-29T05:25:45.773Z,94.90
2022-11-29T05:26:57.555Z,100.70
2022-11-29T05:28:10.371Z,97.13
2022-11-29T05:29:21.279Z,104.60
2022-11-29T05:30:24.739Z,97.90
2022-11-29T05:31:41.796Z,88.28
2022-11-29T05:32:57.534Z,91.05
2022-11-29T05:34:17.456Z,84.40
2022-11-29T05:35:47.408Z,121.82
2022-11-29T05:37:00.154Z,88.45
2022-11-29T05:38:12.507Z,87.97
2022-11-29T05:39:37.650Z,84.75
2022-11-29T05:40:46.324Z,87.15
2022-11-29T05:42:11.765Z,80.65
2022-11-29T05:43:37.727Z,84.00
2022-11-29T05:44:46.588Z,87.10
2022-11-29T05:45:55.649Z,98.35
2022-11-29T05:47:01.801Z,103.40
2022-11-29T05:48:09.042Z,86.88
2022-11-29T05:49:21.921Z,85.82
2022-11-29T05:50:29.681Z,94.57
2022-11-29T05:51:41.434Z,77.40
2022-11-29T05:52:51.767Z,109.70
2022-11-29T05:54:04.119Z,93.88
2022-11-29T05:55:20.510Z,83.43
2022-11-29T05:56:28.996Z,71.60
2022-11-29T05:57:42.522Z,90.38
2022-11-29T05:58:51.238Z,80.78
2022-11-29T05:59:54.153Z,87.15
2022-11-29T06:01:02.685Z,98.75
2022-11-29T06:02:22.740Z,75.13
2022-11-29T06:03:33.700Z,79.07
2022-11-29T06:04:55.938Z,67.60
2022-11-29T06:06:02.659Z,86.57
2022-11-29T06:07:14.161Z,85.25
2022-11-29T06:08:21.062Z,79.90
2022-11-29T06:09:29.266Z,78.43
2022-11-29T06:10:34.603Z,83.10
2022-11-29T06:11:43.252Z,89.38
2022-11-29T06:13:00.239Z,86.60
2022-11-29T06:14:09.631Z,95.82
2022-11-29T06:15:28.685Z,82.78
2022-11-29T06:16:51.327Z,87.10
2022-11-29T06:18:03.170Z,78.43
2022-11-29T06:19:33.255Z,85.68
2022-11-29T06:21:00.019Z,79.80
2022-11-29T06:22:20.786Z,85.05
2022-11-29T06:23:36.536Z,88.05
2022-11-29T06:24:52.507Z,94.82
2022-11-29T06:26:10.303Z,76.15
2022-11-29T06:27:35.181Z,82.00
2022-11-29T06:28:51.297Z,70.15
2022-11-29T06:30:03.095Z,77.40
2022-11-29T06:31:13.064Z,68.25
2022-11-29T06:32:25.144Z,79.68
2022-11-29T06:33:35.505Z,68.63
2022-11-29T06:34:46.133Z,72.47
2022-11-29T06:35:57.663Z,70.35
2022-11-29T06:37:04.737Z,81.00
2022-11-29T06:38:14.754Z,82.20
2022-11-29T06:39:16.723Z,70.53
2022-11-29T06:40:19.358Z,69.60
2022-11-29T06:41:23.680Z,77.30
2022-11-29T06:42:26.163Z,78.85
2022-11-29T06:43:28.338Z,78.70
2022-11-29T06:44:32.999Z,87.30
2022-11-29T06:45:34.987Z,87.97
2022-11-29T06:46:46.313Z,96.47
2022-11-29T06:47:55.046Z,95.00
2022-11-29T06:49:06.949Z,88.28
2022-11-29T06:50:27.756Z,79.82
2022-11-29T06:51:34.441Z,87.65
2022-11-29T06:52:44.727Z,93.35
2022-11-29T06:53:52.413Z,89.25
2022-11-29T06:55:07.559Z,92.20
2022-11-29T06:56:22.212Z,72.68
2022-11-29T06:57:32.113Z,85.25
2022-11-29T06:58:46.450Z,82.07
2022-11-29T07:00:03.492Z,74.00
2022-11-29T07:01:14.273Z,87.32
2022-11-29T07:02:40.832Z,74.10
2022-11-29T07:03:59.863Z,82.10
2022-11-29T07:05:12.300Z,75.18
2022-11-29T07:06:21.169Z,90.25
2022-11-29T07:07:24.898Z,87.55
2022-11-29T07:08:27.970Z,81.95
2022-11-29T07:09:34.103Z,90.18
2022-11-29T07:10:39.365Z,81.95
2022-11-29T07:11:42.358Z,81.10
2022-11-29T07:12:46.297Z,90.35
2022-11-29T07:13:48.374Z,78.13
2022-11-29T07:14:52.844Z,90.45
2022-11-29T07:16:04.160Z,71.45
2022-11-29T07:17:16.002Z,74.28
2022-11-29T07:18:29.159Z,79.80
2022-11-29T07:19:42.868Z,94.72
2022-11-29T07:20:57.559Z,87.97
2022-11-29T07:22:06.290Z,89.35
2022-11-29T07:23:19.027Z,71.82
2022-11-29T07:24:33.993Z,82.80
2022-11-29T07:25:44.242Z,71.88
2022-11-29T07:26:59.330Z,69.30
2022-11-29T07:28:10.894Z,70.75
2022-11-29T07:29:27.869Z,78.47
2022-11-29T07:30:38.770Z,81.63
2022-11-29T07:31:55.464Z,88.20
2022-11-29T07:33:09.042Z,96.43
2022-11-29T07:34:19.423Z,76.10
2022-11-29T07:35:30.280Z,88.55
2022-11-29T07:36:40.943Z,76.18
2022-11-29T07:37:57.726Z,78.35
2022-11-29T07:39:16.278Z,77.63
2022-11-29T07:40:25.103Z,92.85
2022-11-29T07:41:35.414Z,75.93
2022-11-29T07:42:46.207Z,89.93
2022-11-29T07:43:55.374Z,92.07
2022-11-29T07:45:07.266Z,90.18
2022-11-29T07:46:11.177Z,85.72
2022-11-29T07:47:13.411Z,91.65
2022-11-29T07:48:18.142Z,100.75
2022-11-29T07:49:20.611Z,93.10
2022-11-29T07:50:22.335Z,84.88
2022-11-29T07:51:24.909Z,91.38
2022-11-29T07:52:26.660Z,73.75
2022-11-29T07:53:30.244Z,80.88
2022-11-29T07:54:31.818Z,79.70
2022-11-29T07:55:36.018Z,87.72
2022-11-29T07:56:37.514Z,81.25
2022-11-29T07:57:39.951Z,87.57
2022-11-29T07:58:42.682Z,88.40
2022-11-29T07:59:44.470Z,85.30
2022-11-29T08:00:47.311Z,85.25
2022-11-29T08:01:50.323Z,81.95
2022-11-29T08:02:53.122Z,89.30
2022-11-29T08:03:54.631Z,91.47
2022-11-29T08:04:57.308Z,93.88
2022-11-29T08:05:59.957Z,77.18
2022-11-29T08:07:02.496Z,83.03
2022-11-29T08:08:04.272Z,88.50
2022-11-29T08:09:07.536Z,88.88
2022-11-29T08:10:12.018Z,96.35
2022-11-29T08:11:15.833Z,91.95
2022-11-29T08:12:18.396Z,83.63
2022-11-29T08:13:21.544Z,98.68
2022-11-29T08:14:24.482Z,103.72
2022-11-29T08:15:26.032Z,98.43
2022-11-29T08:16:28.672Z,98.47
2022-11-29T08:17:31.539Z,99.40
2022-11-29T08:18:34.256Z,102.22
2022-11-29T08:19:35.971Z,94.05
2022-11-29T08:20:39.135Z,108.93
2022-11-29T08:21:46.729Z,110.85
2022-11-29T08:22:54.213Z,91.57
2022-11-29T08:23:56.813Z,91.55
2022-11-29T08:24:59.787Z,97.20
2022-11-29T08:26:02.991Z,91.65
2022-11-29T08:27:05.475Z,84.82
2022-11-29T08:28:07.199Z,97.93
2022-11-29T08:29:09.775Z,92.22
2022-11-29T08:30:11.677Z,101.38
2022-11-29T08:31:14.704Z,100.38
2022-11-29T08:32:16.594Z,99.95
2022-11-29T08:33:20.608Z,103.85
2022-11-29T08:34:23.069Z,95.25
2022-11-29T08:35:25.659Z,107.57
2022-11-29T08:36:27.319Z,93.68
2022-11-29T08:37:29.811Z,91.30
2022-11-29T08:38:32.320Z,103.47
2022-11-29T08:39:34.832Z,107.82
2022-11-29T08:40:36.369Z,91.75
2022-11-29T08:41:39.134Z,82.05
2022-11-29T08:42:41.694Z,91.05
2022-11-29T08:43:44.925Z,87.25
2022-11-29T08:44:48.024Z,84.63
2022-11-29T08:45:52.054Z,91.07
2022-11-29T08:47:12.074Z,93.63
2022-11-29T08:48:15.065Z,98.90
2022-11-29T08:49:18.790Z,77.60
2022-11-29T08:50:21.423Z,82.30
2022-11-29T08:51:22.948Z,88.82
2022-11-29T08:52:43.377Z,85.30
2022-11-29T08:53:51.613Z,86.45
2022-11-29T08:54:53.262Z,79.60
2022-11-29T08:56:00.160Z,73.60
2022-11-29T08:57:38.152Z,80.97
2022-11-29T08:58:25.619Z,83.53
2022-11-29T08:59:28.089Z,81.75
2022-11-29T09:00:30.881Z,76.10
2022-11-29T09:01:33.684Z,75.90
2022-11-29T09:02:35.945Z,74.20
2022-11-29T09:03:56.255Z,66.05
2022-11-29T09:05:00.096Z,86.85
2022-11-29T09:06:12.012Z,87.50
2022-11-29T09:07:16.012Z,73.38
2022-11-29T09:08:19.095Z,79.18
2022-11-29T09:09:21.874Z,72.03
2022-11-29T09:10:24.392Z,85.95
2022-11-29T09:11:28.835Z,75.35
2022-11-29T09:12:30.806Z,89.07
2022-11-29T09:13:33.322Z,89.72
2022-11-29T09:14:35.977Z,67.88
2022-11-29T09:15:37.767Z,82.70
2022-11-29T09:16:40.599Z,77.20
2022-11-29T09:17:43.146Z,78.20
2022-11-29T09:18:51.293Z,73.68
2022-11-29T09:19:54.261Z,79.82
2022-11-29T09:20:59.232Z,84.78
2022-11-29T09:22:01.737Z,80.40
2022-11-29T09:23:04.238Z,68.45
2022-11-29T09:24:06.659Z,81.97
2022-11-29T09:25:10.185Z,78.75
2022-11-29T09:26:17.627Z,78.07
2022-11-29T09:27:20.122Z,93.97
2022-11-29T09:28:22.886Z,69.03
2022-11-29T09:29:25.428Z,82.82
2022-11-29T09:30:29.838Z,72.97
2022-11-29T09:31:35.443Z,90.13
2022-11-29T09:32:37.249Z,75.90
2022-11-29T09:33:40.509Z,90.93
2022-11-29T09:34:43.276Z,91.82
2022-11-29T09:35:45.325Z,85.10
2022-11-29T09:36:49.166Z,82.25
2022-11-29T09:37:51.799Z,83.10
2022-11-29T09:38:53.312Z,69.95
2022-11-29T09:39:55.773Z,74.15
2022-11-29T09:41:05.098Z,89.15
2022-11-29T09:42:19.976Z,83.13
2022-11-29T09:43:29.958Z,82.28
2022-11-29T09:44:42.079Z,79.97
2022-11-29T09:45:48.781Z,91.60
2022-11-29T09:47:02.463Z,87.25
2022-11-29T09:48:29.338Z,80.03
2022-11-29T09:49:48.168Z,98.00
2022-11-29T09:50:54.959Z,106.50
2022-11-29T09:52:05.621Z,79.75
2022-11-29T09:53:27.953Z,99.63
2022-11-29T09:54:36.814Z,100.60
2022-11-29T09:55:55.718Z,93.90
2022-11-29T09:56:58.344Z,86.75
2022-11-29T09:58:03.696Z,100.75
2022-11-29T09:59:11.769Z,75.28
2022-11-29T10:00:16.596Z,101.45
2022-11-29T10:01:24.231Z,79.75
2022-11-29T10:02:37.342Z,83.30
2022-11-29T10:03:44.448Z,80.13
2022-11-29T10:04:51.592Z,106.82
2022-11-29T10:05:59.480Z,89.05
2022-11-29T10:07:07.574Z,97.72
2022-11-29T10:08:19.428Z,78.25
2022-11-29T10:09:29.563Z,82.53
2022-11-29T10:10:41.501Z,69.82
2022-11-29T10:11:56.447Z,79.57
2022-11-29T10:13:04.822Z,79.72
2022-11-29T10:14:15.147Z,78.57
2022-11-29T10:15:22.457Z,71.32
2022-11-29T10:16:29.587Z,69.75
2022-11-29T10:17:37.869Z,65.40
2022-11-29T10:18:46.237Z,69.45
2022-11-29T10:19:53.733Z,70.78
2022-11-29T10:20:58.937Z,65.93
2022-11-29T10:22:06.946Z,75.60
2022-11-29T10:23:17.034Z,66.32
2022-11-29T10:24:23.803Z,71.20
2022-11-29T10:25:30.563Z,61.25
2022-11-29T10:26:35.501Z,72.80
2022-11-29T10:27:41.182Z,68.28
2022-11-29T10:28:47.372Z,69.53
2022-11-29T10:29:51.178Z,62.97
2022-11-29T10:30:54.649Z,70.00
2022-11-29T10:31:59.219Z,73.88
2022-11-29T10:33:02.544Z,72.30
2022-11-29T10:34:13.854Z,78.53
2022-11-29T10:35:18.998Z,62.80
2022-11-29T10:36:28.679Z,71.18
2022-11-29T10:37:32.669Z,51.22
2022-11-29T10:38:34.221Z,54.10
2022-11-29T10:39:42.040Z,55.65
2022-11-29T10:40:49.900Z,69.78
2022-11-29T10:41:56.547Z,67.15
2022-11-29T10:42:58.261Z,52.42
2022-11-29T10:44:01.882Z,56.88
2022-11-29T10:45:08.668Z,56.83
2022-11-29T10:46:16.094Z,65.85
2022-11-29T10:47:17.796Z,51.53
2022-11-29T10:48:22.878Z,68.75
2022-11-29T10:49:29.106Z,58.28
2022-11-29T10:50:33.758Z,58.95
2022-11-29T10:51:36.323Z,52.13
2022-11-29T10:52:39.382Z,62.53
2022-11-29T10:53:41.882Z,56.63
2022-11-29T10:54:45.848Z,56.05
2022-11-29T10:55:54.214Z,49.72
2022-11-29T10:56:57.212Z,60.05
2022-11-29T10:58:15.918Z,59.03
2022-11-29T10:59:23.366Z,52.85
2022-11-29T11:00:27.759Z,47.53
2022-11-29T11:01:32.318Z,60.30
2022-11-29T11:02:34.740Z,58.72
2022-11-29T11:03:39.930Z,58.88
2022-11-29T11:04:46.422Z,53.47
2022-11-29T11:06:00.106Z,54.40
2022-11-29T11:07:05.025Z,61.40
2022-11-29T11:08:17.421Z,45.25
2022-11-29T11:09:22.449Z,53.90
2022-11-29T11:10:27.554Z,54.95
2022-11-29T11:11:32.401Z,50.00
2022-11-29T11:12:36.827Z,43.55
2022-11-29T11:13:40.806Z,52.90
2022-11-29T11:14:45.565Z,47.53
2022-11-29T11:15:47.378Z,51.53
2022-11-29T11:16:50.175Z,49.00
2022-11-29T11:17:57.651Z,48.15
2022-11-29T11:19:30.456Z,45.45
2022-11-29T11:20:35.634Z,49.28
2022-11-29T11:21:40.263Z,61.80
2022-11-29T11:22:41.774Z,51.70
2022-11-29T11:23:55.631Z,54.08
2022-11-29T11:25:00.078Z,60.08
2022-11-29T11:26:05.344Z,66.78
2022-11-29T11:27:08.181Z,59.25
2022-11-29T11:28:20.308Z,54.20
2022-11-29T11:29:26.549Z,56.22
2022-11-29T11:30:29.309Z,52.30
2022-11-29T11:31:35.374Z,58.20
2022-11-29T11:32:37.963Z,55.30
2022-11-29T11:33:41.364Z,44.30
2022-11-29T11:34:52.506Z,64.22
2022-11-29T11:36:12.238Z,53.15
2022-11-29T11:37:21.535Z,55.58
2022-11-29T11:38:24.269Z,56.00
2022-11-29T11:39:29.039Z,51.33
2022-11-29T11:40:32.721Z,49.05
2022-11-29T11:42:05.286Z,49.35
2022-11-29T11:43:19.815Z,41.40
2022-11-29T11:44:47.788Z,47.97
2022-11-29T11:45:54.353Z,51.17
2022-11-29T11:46:57.404Z,47.95
2022-11-29T11:48:02.904Z,53.20
2022-11-29T11:49:13.490Z,42.95
2022-11-29T11:50:25.992Z,53.45
2022-11-29T11:51:28.671Z,46.92
2022-11-29T11:52:40.686Z,53.40
2022-11-29T11:53:52.455Z,55.05
2022-11-29T11:55:01.016Z,46.35
2022-11-29T11:56:07.225Z,46.45
2022-11-29T11:57:17.042Z,45.20
2022-11-29T11:58:23.495Z,52.67
2022-11-29T11:59:28.037Z,55.22
2022-11-29T12:02:26.211Z,55.53
2022-11-29T12:03:43.165Z,52.75
2022-11-29T12:04:46.178Z,47.90
2022-11-29T12:05:49.797Z,49.70
2022-11-29T12:06:55.727Z,55.88
2022-11-29T12:08:09.021Z,51.10
2022-11-29T12:09:27.389Z,52.05
2022-11-29T12:10:34.688Z,55.90
2022-11-29T12:11:43.786Z,48.50
2022-11-29T12:12:48.512Z,56.50
2022-11-29T12:13:54.999Z,51.10
2022-11-29T12:15:00.851Z,55.90
2022-11-29T12:16:09.751Z,61.42
2022-11-29T12:17:20.350Z,47.03
2022-11-29T12:18:30.504Z,46.72
2022-11-29T12:19:41.119Z,61.00
2022-11-29T12:20:51.631Z,50.35
2022-11-29T12:22:00.733Z,48.92
2022-11-29T12:23:24.761Z,48.80
2022-11-29T12:24:31.798Z,46.25
2022-11-29T12:25:43.606Z,49.22
2022-11-29T12:26:56.981Z,52.90
2022-11-29T12:28:00.735Z,45.05
2022-11-29T12:29:03.540Z,49.28
2022-11-29T12:30:13.188Z,56.25
2022-11-29T12:31:34.313Z,57.05
2022-11-29T12:32:55.365Z,49.83
2022-11-29T12:34:09.053Z,63.85
2022-11-29T12:35:36.892Z,56.20
2022-11-29T12:36:47.924Z,55.78
2022-11-29T12:37:53.324Z,59.50
2022-11-29T12:39:09.439Z,52.97
2022-11-29T12:40:20.282Z,54.15
2022-11-29T12:41:38.080Z,56.10
2022-11-29T12:42:46.299Z,58.15
2022-11-29T12:43:59.866Z,62.95
2022-11-29T12:45:16.388Z,55.45
2022-11-29T12:46:24.295Z,55.55
2022-11-29T12:47:45.188Z,51.65
2022-11-29T12:48:59.917Z,58.63
2022-11-29T12:50:11.725Z,58.15
2022-11-29T12:51:23.405Z,54.42
2022-11-29T12:52:33.074Z,65.95
2022-11-29T12:53:51.833Z,50.72
2022-11-29T12:55:05.105Z,65.75
2022-11-29T12:56:16.113Z,60.55
2022-11-29T12:57:29.237Z,58.10
2022-11-29T12:58:44.233Z,61.35
2022-11-29T13:00:09.210Z,61.13
2022-11-29T13:01:20.190Z,54.63
2022-11-29T13:02:31.961Z,74.25
2022-11-29T13:03:44.667Z,66.63
2022-11-29T13:04:59.734Z,61.63
2022-11-29T13:06:17.508Z,67.53
2022-11-29T13:07:29.208Z,65.60
2022-11-29T13:08:48.829Z,62.05
2022-11-29T13:10:17.810Z,60.00
2022-11-29T13:11:25.984Z,60.92
2022-11-29T13:12:36.183Z,59.58
2022-11-29T13:13:41.671Z,62.60
2022-11-29T13:14:51.848Z,60.15
2022-11-29T13:16:04.413Z,62.17
2022-11-29T13:17:22.949Z,58.58
2022-11-29T13:18:33.308Z,67.57
2022-11-29T13:19:43.531Z,65.43
2022-11-29T13:20:52.682Z,61.95
2022-11-29T13:22:02.788Z,68.20
2022-11-29T13:23:15.921Z,76.10
2022-11-29T13:24:25.591Z,62.45
2022-11-29T13:25:33.317Z,65.25
2022-11-29T13:26:39.576Z,59.03
2022-11-29T13:27:54.760Z,53.67
2022-11-29T13:28:58.123Z,64.70
2022-11-29T13:30:01.888Z,56.60
2022-11-29T13:31:08.913Z,61.35
2022-11-29T13:32:30.637Z,58.80
2022-11-29T13:33:52.233Z,54.22
2022-11-29T13:34:59.818Z,68.78
2022-11-29T13:36:13.048Z,57.05
2022-11-29T13:37:24.329Z,56.58
2022-11-29T13:38:32.524Z,56.70
2022-11-29T13:39:50.853Z,62.28
2022-11-29T13:41:00.235Z,67.07
2022-11-29T13:42:11.157Z,64.43
2022-11-29T13:43:22.643Z,57.92
2022-11-29T13:44:33.560Z,62.13
2022-11-29T13:45:42.688Z,58.70
2022-11-29T13:46:50.984Z,61.70
2022-11-29T13:47:55.908Z,65.78
2022-11-29T13:48:58.687Z,70.45
2022-11-29T13:50:02.476Z,69.90
2022-11-29T13:51:24.573Z,62.72
2022-11-29T13:52:38.432Z,62.30
2022-11-29T13:53:48.830Z,65.78
2022-11-29T13:55:05.963Z,62.03
2022-11-29T13:56:15.102Z,74.65
2022-11-29T13:57:17.718Z,60.20
2022-11-29T13:58:40.965Z,58.92
2022-11-29T13:59:49.447Z,49.67
2022-11-29T14:00:52.799Z,62.75
2022-11-29T14:01:56.871Z,77.88
2022-11-29T14:03:36.796Z,64.85
2022-11-29T14:04:45.973Z,64.95
2022-11-29T14:05:49.486Z,54.88
2022-11-29T14:07:03.362Z,55.05
2022-11-29T14:08:26.305Z,58.65
2022-11-29T14:09:33.438Z,56.28
2022-11-29T14:10:36.282Z,58.58
2022-11-29T14:11:48.617Z,77.85
2022-11-29T14:12:55.484Z,68.20
2022-11-29T14:14:05.072Z,56.95
2022-11-29T14:15:22.341Z,50.05
2022-11-29T14:16:31.470Z,56.25
2022-11-29T14:17:46.335Z,69.25
2022-11-29T14:19:04.629Z,65.70
2022-11-29T14:20:50.111Z,48.38
2022-11-29T14:22:23.141Z,60.35
2022-11-29T14:23:38.021Z,58.17
2022-11-29T14:24:40.781Z,51.35
2022-11-29T14:26:03.866Z,61.85
2022-11-29T14:27:54.261Z,55.47
2022-11-29T14:28:59.474Z,51.35
2022-11-29T14:30:01.024Z,47.92
2022-11-29T14:31:04.625Z,52.00
2022-11-29T14:32:23.327Z,49.42
2022-11-29T14:33:58.595Z,50.38
2022-11-29T14:35:06.047Z,48.95
2022-11-29T14:36:21.279Z,42.13
2022-11-29T14:37:36.226Z,46.97
2022-11-29T14:38:46.639Z,44.60
2022-11-29T14:39:52.927Z,51.75
2022-11-29T14:41:02.022Z,48.85
2022-11-29T14:42:14.449Z,52.15
2022-11-29T14:43:23.043Z,48.70
2022-11-29T14:44:29.322Z,53.30
2022-11-29T14:45:35.025Z,54.75
2022-11-29T14:46:36.721Z,47.75
2022-11-29T14:47:49.170Z,40.90
2022-11-29T14:48:59.991Z,55.67
2022-11-29T14:50:07.307Z,55.45
2022-11-29T14:51:11.465Z,46.13
2022-11-29T14:52:27.176Z,50.25
2022-11-29T14:53:34.162Z,47.83
2022-11-29T14:54:54.337Z,45.13
2022-11-29T14:56:34.923Z,45.45
2022-11-29T14:58:13.576Z,51.95
2022-11-29T14:59:52.310Z,41.63
2022-11-29T15:01:10.624Z,45.05
2022-11-29T15:02:25.955Z,46.30
2022-11-29T15:03:33.881Z,46.60